Date,TemperatureHighF,TemperatureAvgF,TemperatureLowF,DewpointHighF,DewpointAvgF,DewpointLowF,HumidityHigh,HumidityAvg,HumidityLow,PressureMaxIn,PressureMinIn,WindSpeedMaxMPH,WindSpeedAvgMPH,GustSpeedMaxMPH,PrecipitationSumIn
2013-1-1,34,29,16,25,17,6,75,61,49,29.97,29.77,8,3,20,0.00
2013-1-2,28,19,7,13,8,2,83,63,50,30.13,29.94,9,3,21,0.00
2013-1-3,25,14,4,11,2,-8,75,58,35,30.17,30.03,6,1,13,0.00
2013-1-4,36,25,10,23,16,6,89,70,55,30.03,29.86,9,1,22,0.00
2013-1-5,39,30,19,23,19,13,80,63,46,30.27,29.90,12,2,27,0.00
2013-1-6,41,29,20,29,23,15,91,77,58,30.22,29.94,6,1,14,0.00
2013-1-7,40,28,17,26,20,12,90,73,45,30.41,29.99,6,1,16,0.00
2013-1-8,45,29,15,29,22,11,92,76,51,30.40,30.30,8,1,22,0.00
2013-1-9,42,33,20,34,27,17,90,79,59,30.40,30.06,8,1,20,0.00
2013-1-10,44,37,26,30,24,21,83,59,42,30.54,30.11,11,4,26,0.00
2013-1-11,37,31,22,34,26,19,95,83,66,30.53,30.18,1,0,4,0.20
2013-1-12,44,39,36,42,37,34,96,95,93,30.18,30.11,0,0,5,0.01
2013-1-13,51,43,36,48,41,35,96,93,85,30.15,30.00,2,0,11,0.00
2013-1-14,53,46,36,50,39,26,97,80,49,30.27,29.90,10,2,21,0.00
2013-1-15,38,34,31,29,25,23,83,70,59,30.33,30.21,2,0,7,0.01
2013-1-16,34,32,29,32,29,24,94,89,69,30.24,29.81,3,0,8,0.42
2013-1-17,39,32,26,31,25,12,94,75,52,30.11,29.85,8,2,18,0.00
2013-1-18,28,20,14,14,3,-6,72,48,32,30.48,30.02,9,2,19,0.00
2013-1-19,43,34,15,30,22,8,82,62,48,30.39,29.90,6,2,19,0.00
2013-1-20,49,38,26,30,24,7,80,59,32,29.95,29.59,11,4,27,0.00
2013-1-21,27,23,18,20,12,7,85,64,44,30.11,29.78,9,1,24,0.00
2013-1-22,23,17,10,18,2,-9,88,55,30,30.12,29.76,13,4,27,0.00
2013-1-23,15,9,5,-3,-7,-11,65,48,36,30.18,30.10,11,4,28,0.00
2013-1-24,18,8,-1,-3,-8,-11,67,47,28,30.28,30.13,12,4,27,0.00
2013-1-25,21,14,7,11,-3,-8,77,47,32,30.36,30.04,10,2,20,0.00
2013-1-26,24,15,9,10,3,-2,81,61,38,30.28,30.00,8,2,18,0.00
2013-1-27,29,18,11,6,2,-2,70,50,27,30.49,30.28,7,2,18,0.00
2013-1-28,29,25,15,27,15,0,93,69,32,30.47,29.99,3,0,8,0.13
2013-1-29,37,32,28,31,29,26,94,89,80,30.18,29.99,1,0,5,0.05
2013-1-30,56,46,33,56,44,-100,100,96,58,30.14,29.43,7,2,27,0.07
2013-1-31,58,45,28,57,32,-100,96,66,33,29.63,28.99,15,8,41,0.78
2013-2-1,30,25,19,16,9,3,65,51,34,30.13,29.63,10,4,20,0.04
2013-2-2,29,22,15,17,7,2,81,54,32,30.27,30.06,7,2,18,0.00
2013-2-3,29,22,16,18,15,11,84,73,57,30.06,29.76,3,0,11,0.01
2013-2-4,29,21,14,13,8,4,84,59,36,29.96,29.76,12,3,25,0.00
2013-2-5,26,23,20,20,15,8,86,70,57,30.02,29.93,1,0,6,0.01
2013-2-6,36,28,21,24,16,0,88,63,32,30.32,29.92,10,3,20,0.00
2013-2-7,33,23,13,12,6,2,74,50,28,30.53,30.32,3,0,11,0.00
2013-2-8,30,26,19,29,22,6,95,85,48,30.44,29.59,13,3,28,0.36
2013-2-9,22,18,13,21,16,9,93,90,83,30.26,29.63,12,7,29,0.02
2013-2-10,32,18,6,24,11,1,84,74,59,30.45,30.27,6,1,14,0.08
2013-2-11,43,31,13,42,28,7,98,90,76,30.36,29.64,6,0,13,0.20
2013-2-12,43,36,31,38,28,22,97,74,53,29.91,29.65,9,3,22,0.00
2013-2-13,42,35,31,26,23,20,77,62,46,29.89,29.68,7,1,19,0.00
2013-2-14,44,33,26,26,23,19,90,68,39,29.99,29.71,5,1,12,0.00
2013-2-15,51,36,23,33,28,19,92,74,48,30.01,29.90,6,1,16,0.00
2013-2-16,36,32,26,32,25,18,92,77,54,29.95,29.70,5,1,16,0.03
2013-2-17,26,20,13,21,5,-1,83,52,35,29.79,29.50,15,8,35,0.00
2013-2-18,29,19,11,7,0,-5,62,44,26,30.20,29.80,13,6,28,0.00
2013-2-19,45,31,15,41,24,5,96,75,53,30.21,29.58,5,1,17,0.13
2013-2-20,37,29,23,36,16,8,95,60,40,29.84,29.58,12,6,25,0.00
2013-2-21,29,24,20,13,11,9,70,59,48,30.26,29.83,12,6,29,0.00
2013-2-22,42,30,20,25,19,13,79,64,40,30.39,30.26,5,0,12,0.00
2013-2-23,35,32,31,32,29,23,95,86,73,30.31,29.85,2,0,8,0.09
2013-2-24,38,35,31,36,33,29,95,93,87,29.90,29.69,6,1,14,0.35
2013-2-25,39,33,27,30,28,24,93,81,66,30.24,29.90,5,1,11,0.00
2013-2-26,40,35,32,32,28,24,90,75,57,30.32,30.08,2,0,13,0.00
2013-2-27,41,37,33,40,36,29,96,95,83,30.08,29.58,5,2,22,0.73
2013-2-28,45,37,32,39,34,31,95,88,70,29.63,29.52,4,0,7,0.00
2013-3-1,44,37,34,33,28,25,92,71,52,29.69,29.53,8,1,18,0.00
2013-3-2,38,34,31,26,25,23,77,69,61,29.70,29.64,5,2,14,0.00
2013-3-3,35,30,27,26,23,20,88,75,65,29.67,29.60,6,3,16,0.00
2013-3-4,36,29,24,22,20,18,78,68,55,29.80,29.66,13,7,30,0.00
2013-3-5,44,34,25,27,23,19,81,66,49,30.07,29.80,6,2,16,0.00
2013-3-6,39,35,32,34,30,26,93,84,69,30.03,29.97,10,4,26,0.00
2013-3-7,35,32,29,29,27,26,93,84,71,30.04,29.96,10,5,29,0.20
2013-3-8,35,32,29,33,29,24,95,89,68,30.17,29.94,6,2,20,0.80
2013-3-9,55,39,28,26,22,15,82,54,23,30.34,30.16,6,1,16,0.00
2013-3-10,52,36,21,31,26,18,92,70,40,30.41,30.30,3,0,11,0.00
2013-3-11,52,41,34,39,34,30,90,79,57,30.33,30.17,5,1,14,0.00
2013-3-12,52,46,39,50,44,37,97,94,85,30.14,29.71,5,1,18,0.58
2013-3-13,43,37,32,38,30,27,91,76,52,29.82,29.78,8,2,20,0.00
2013-3-14,35,32,30,25,23,22,76,69,64,29.81,29.79,5,1,12,0.00
2013-3-15,27,24,22,14,8,5,61,50,42,29.92,29.87,10,6,26,0.00
2013-3-16,33,29,26,26,17,13,75,61,49,29.84,29.71,7,2,20,0.00
2013-3-17,30,29,28,15,15,14,59,55,52,29.90,29.88,2,0,6,0.00
2013-3-18,25,22,18,11,5,2,54,47,43,30.41,30.30,1,0,7,0.00
2013-3-19,33,29,28,31,27,25,92,92,90,30.15,29.78,5,2,18,0.35
2013-3-20,38,31,24,28,20,16,92,64,41,29.80,29.72,11,4,25,0.00
2013-3-21,36,29,22,25,18,14,81,64,46,29.83,29.61,5,1,12,0.00
2013-3-22,37,27,18,20,14,11,75,59,45,29.72,29.65,10,2,19,0.00
2013-3-23,41,34,29,24,20,16,77,58,38,29.82,29.70,13,6,27,0.00
2013-3-24,46,36,28,25,22,19,71,57,37,29.87,29.71,8,2,18,0.00
2013-3-25,42,36,30,28,25,23,78,67,51,29.75,29.46,7,2,21,0.00
2013-3-26,45,38,34,30,26,20,76,64,43,29.74,29.53,6,1,14,0.00
2013-3-27,50,36,25,26,22,19,83,60,32,29.85,29.78,7,2,19,0.00
2013-3-28,46,37,33,34,30,26,87,74,56,29.96,29.87,6,1,13,0.00
2013-3-29,52,40,34,33,31,29,84,72,42,30.07,30.03,6,2,13,0.00
2013-3-30,41,38,31,30,29,26,83,69,62,30.07,30.04,1,0,6,0.00
2013-3-31,40,30,27,26,22,20,77,72,55,30.10,30.08,1,0,2,0.00
2013-4-1,45,43,41,43,41,39,95,94,93,29.63,29.56,5,2,12,0.01
2013-4-2,30,28,27,15,14,12,61,55,47,29.86,29.83,7,2,16,0.00
2013-4-3,30,29,28,16,14,12,59,51,47,30.00,29.97,9,5,18,0.00
2013-4-4,30,29,27,16,15,14,62,57,53,30.25,30.18,6,2,16,0.00
2013-4-5,36,35,34,29,28,28,77,76,75,30.02,29.96,0,0,3,0.00
2013-4-6,36,35,34,25,24,24,66,65,64,29.92,29.90,8,4,14,0.00
2013-4-7,27,26,26,17,16,14,69,65,58,30.28,30.25,0,0,0,0.00
2013-4-8,44,43,42,40,40,39,91,89,87,30.00,29.98,0,0,1,0.00
2013-4-9,70,52,46,51,45,40,94,77,42,30.01,29.85,9,2,21,0.00
2013-4-10,53,51,48,47,44,40,92,78,66,29.94,29.83,3,0,8,0.18
2013-4-11,48,47,47,46,46,46,96,95,94,29.83,29.78,0,0,1,0.00
2013-4-12,44,40,39,34,31,28,80,72,56,30.09,30.06,3,1,12,0.00
2013-4-13,50,39,35,37,34,32,94,83,50,29.85,29.73,7,2,16,0.03
2013-4-14,40,36,35,35,34,32,91,89,84,29.93,29.92,0,0,0,0.00
2013-4-15,44,32,29,34,27,26,90,84,58,30.37,30.22,0,0,3,0.00
2013-4-16,62,41,33,44,36,30,96,82,48,30.38,30.26,5,1,18,0.00
2013-4-17,67,56,44,52,37,27,91,54,24,30.30,30.07,7,2,14,0.00
2013-4-18,60,49,35,46,34,25,94,63,29,30.38,30.10,5,1,16,0.00
2013-4-19,73,60,51,61,56,46,97,89,61,30.11,29.63,10,3,25,0.00
2013-4-20,62,50,39,60,38,22,96,66,33,30.23,29.60,10,4,21,0.30
2013-4-21,53,41,31,29,20,14,74,46,23,30.65,30.26,9,2,20,0.00
2013-4-22,56,42,29,32,27,21,92,58,27,30.69,30.53,6,1,17,0.00
2013-4-23,41,39,36,38,35,28,91,85,73,30.53,30.08,7,2,18,0.00
2013-4-24,75,53,40,47,41,37,92,69,27,30.07,29.80,7,3,17,0.00
2013-4-25,60,51,38,50,32,14,94,55,17,30.25,29.83,10,4,22,0.04
2013-4-26,67,50,31,35,29,25,84,50,21,30.39,30.25,6,1,16,0.00
2013-4-27,67,50,33,42,35,28,94,61,24,30.40,30.26,4,0,11,0.00
2013-4-28,70,52,35,42,33,27,95,56,23,30.32,30.20,6,1,14,0.00
2013-4-29,66,53,43,45,34,16,87,54,18,30.25,30.19,5,1,14,0.00
2013-4-30,72,57,42,39,29,20,74,40,17,30.33,30.22,5,1,14,0.01
2013-5-1,74,54,34,45,35,24,84,54,23,30.45,30.33,4,1,14,0.00
2013-5-2,78,58,38,46,39,30,94,56,22,30.43,30.27,5,1,13,0.00
2013-5-3,66,53,42,43,36,-100,78,55,39,30.47,30.33,6,2,17,0.01